My Meet Scores
Lillian Monino, GymNasti - MyMeetScores.com
Top100 | Top Teams | Upcoming Meets | Completed Meets | Latest | Add Scores | Help| Support | Bookmark and Share

Lillian Monino, GymNasti
Personal Bests
LevelVault BarsBeamFloorAA
39.5509.475 9.6759.70038.125
49.3509.650 9.6259.55038.000
59.5759.500 9.6259.60037.850
79.2759.850 9.6259.72538.475
Scores on America's Top 100as of 11.22.2019
Year Level Vault Bars Beam Floor AA
2019 79.850, 9.825

Click here to view our
exclusive Top 100 Collection
Meet Scores
Date Meet Team Session Level Division Vault Bars Beam Floor AA
2019-03-29 Illinois Level 7 & 8 State Meet GymNasti 8 7 Sr A 9.275 8 9.850 1 9.625 1 9.725 1 38.475 1
2019-02-15 Women's Midwest Open GymNasti 02 7 Junior B 8.800 8T 9.600 1 9.450 5 8.950 13T 36.800 3
2019-02-08 IGI Chicago Style 2019 GymNasti 22 7 421 Rush L7 B 9.100 4 9.825 1 9.525 3 9.250 7 37.700 1
2019-01-25 King Arthur Invitational GymNasti 5 7 JR 9.100 4T 9.525 1 9.200 4T 9.175 3T 37.000 1
2019-01-11 St Jude Benefit Meet GymNasti 5B 7 Sr A 8.750 4 9.675 3T 9.275 6 9.600 5T 37.300 3
2018-12-07 St. Nick Invite 2018 GymNasti 6B 7 JrB 8.050 10 8.875 7 8.950 6 9.600 4 35.475 6
2018-03-08 Level 4 & 5 State GymNasti 10 5 Sr A 9.550 1 9.300 3 9.500 4 9.500 2 37.850 3
2018-02-23 Kinetic Classic GymNasti 8 5 Middle 9.200 19T 9.200 25T 9.625 3 9.600 2 37.625 3
2018-02-17 Women's Midwest Open GymNasti 01 5 Sr A 9.500 1 9.000 3T 9.150 8 9.200 6 36.850 4
2018-01-26 King Arthur Invitational GymNasti 4 5 SR 9.150 1 9.325 1 9.375 1 9.475 1 37.325 1
2018-01-12 St Jude Benefit Meet GymNasti 7A 5 SrA 9.575 2 9.500 1 9.500 1 9.200 1 37.775 1
2017-12-08 St. Nick Invite GymNasti 4 5 SrA 9.425 1 9.400 1 9.525 1 9.500 1 37.850 1
2017-03-10 2017 Illinois Level 4 State Championships GymNasti 5 4 Jr C 9.350 1 9.475 1 9.625 2 9.550 1 38.000 2
2017-02-17 Midwest Open GymNasti 2B 4 Sr B 9.150 1 9.600 2T 9.550 1 9.300 1 37.600 1
2017-02-10 IGI Chicago Style Gymnastics Meet GymNasti 632L 4 JrC 9.075 5 9.500 4 9.450 2 9.225 6 37.250 4
2017-02-03 2017 Gateway Challenge GymNasti 6B 4 10 9.100 6 9.425 4 9.425 1T 9.525 1 37.475 2
2017-01-20 2017 Bravo Classic GymNasti 08B 4 10yrs 8.800 7T 9.550 4T 9.625 1 9.400 4 37.375 3
2017-01-13 St Jude Benefit Meet GymNasti 3A 4 Sr A 9.150 2 9.650 2 9.350 4 9.425 2 37.575 2
2016-12-09 St. Nick Invite GymNasti 7 4 SrA 9.100 4 8.950 6 9.475 3T 9.400 3T 36.925 5
2016-03-04 2016 Illinois Level 3 State Championships GymNasti 3 Junior-E 9.475 2 9.475 2 9.400 2 9.550 2 37.900 2
2016-02-19 Midwest Open Womens 2016 GymNasti 1A 3 9+ 9.550 4 8.925 13 9.400 3 9.575 2 37.450 4
2016-02-12 IGI Chicago Style Gymnastics Meet GymNasti 213 3 SrA 9.375 4 9.425 2 9.250 2 9.450 2 37.500 2
2016-01-22 King Arthur Invitational GymNasti S13 3 Sr.B 9.150 10 9.150 4 9.600 1 9.150 5 37.050 2
2016-01-08 St Jude Benefit Meet GymNasti 7A 3 Sr B 9.400 10 9.350 1 9.675 1 9.700 1 38.125 1
2015-12-04 2015 Ultimate Wish Classic GymNasti 11B 3 All 9.375 3 9.350 5 9.325 2 9.575 4 37.625 1
2015-03-12 2015 Illinois Level 3 State Championship GymNasti All 3 Youth-E 9.175 20 9.225 13 9.100 8 9.300 5 36.800 9
2015-02-20 Midwest Open 2015 GymNasti 3A 3 8 8.950 23 8.300 20 8.525 10 9.150 5 34.925 13
Get your scores on
a t-shirt, pin, or hoodie

www.lazysuits.com